createdAt,value
2022-11-05T00:02:03.431Z,6.04
2022-11-05T00:04:50.424Z,6.03
2022-11-05T00:07:44.032Z,6.03
2022-11-05T00:10:29.247Z,6.04
2022-11-05T00:13:18.147Z,6.05
2022-11-05T00:16:05.447Z,6.05
2022-11-05T00:18:33.765Z,6.04
2022-11-05T00:21:02.143Z,6.03
2022-11-05T00:23:49.027Z,6.04
2022-11-05T00:26:17.301Z,6.03
2022-11-05T00:28:45.611Z,6.02
2022-11-05T00:31:14.495Z,6.00
2022-11-05T00:33:43.408Z,5.99
2022-11-05T00:36:12.991Z,5.99
2022-11-05T00:38:43.427Z,5.98
2022-11-05T00:41:11.885Z,5.96
2022-11-05T00:43:58.682Z,5.94
2022-11-05T00:46:27.150Z,5.93
2022-11-05T00:49:14.035Z,5.89
2022-11-05T00:51:45.715Z,5.86
2022-11-05T00:54:14.060Z,5.84
2022-11-05T00:56:42.347Z,5.84
2022-11-05T00:59:10.656Z,5.83
2022-11-05T01:01:39.050Z,5.84
2022-11-05T01:04:07.446Z,5.82
2022-11-05T01:06:35.876Z,5.82
2022-11-05T01:09:04.355Z,5.81
2022-11-05T01:11:37.370Z,5.80
2022-11-05T01:14:10.037Z,5.79
2022-11-05T01:16:39.598Z,5.78
2022-11-05T01:19:10.597Z,5.77
2022-11-05T01:21:39.425Z,5.78
2022-11-05T01:24:10.773Z,5.73
2022-11-05T01:26:39.055Z,5.70
2022-11-05T01:29:07.378Z,5.69
2022-11-05T01:31:36.240Z,5.69
2022-11-05T01:34:04.677Z,5.66
2022-11-05T01:36:33.032Z,5.64
2022-11-05T01:39:02.003Z,5.65
2022-11-05T01:41:30.661Z,5.65
2022-11-05T01:44:00.167Z,5.64
2022-11-05T01:46:36.745Z,5.63
2022-11-05T01:49:18.348Z,5.62
2022-11-05T01:51:47.099Z,5.60
2022-11-05T01:54:21.204Z,5.60
2022-11-05T01:56:55.370Z,5.60
2022-11-05T01:59:30.210Z,5.60
2022-11-05T02:02:01.802Z,5.60
2022-11-05T02:04:41.108Z,5.61
2022-11-05T02:07:11.138Z,5.60
2022-11-05T02:09:55.743Z,5.60
2022-11-05T02:12:28.985Z,5.62
2022-11-05T02:14:58.959Z,5.60
2022-11-05T02:17:42.585Z,5.59
2022-11-05T02:20:32.816Z,5.60
2022-11-05T02:23:28.730Z,5.61
2022-11-05T02:26:03.001Z,5.61
2022-11-05T02:28:58.256Z,5.61
2022-11-05T02:31:47.662Z,5.61
2022-11-05T02:34:40.316Z,5.61
2022-11-05T02:37:39.146Z,5.60
2022-11-05T02:40:17.748Z,5.58
2022-11-05T02:42:58.646Z,5.57
2022-11-05T02:45:41.333Z,5.55
2022-11-05T02:48:30.127Z,5.53
2022-11-05T02:51:04.518Z,5.53
2022-11-05T02:53:59.660Z,5.54
2022-11-05T02:56:32.683Z,5.54
2022-11-05T02:59:01.083Z,5.56
2022-11-05T03:01:29.681Z,5.59
2022-11-05T03:04:03.157Z,5.60
2022-11-05T03:06:56.844Z,5.63
2022-11-05T03:09:25.154Z,5.64
2022-11-05T03:12:17.924Z,5.64
2022-11-05T03:15:23.900Z,5.65
2022-11-05T03:18:23.056Z,5.64
2022-11-05T03:21:07.730Z,5.63
2022-11-05T03:24:08.314Z,5.62
2022-11-05T03:26:49.048Z,5.60
2022-11-05T03:29:25.556Z,5.59
2022-11-05T03:31:56.884Z,5.58
2022-11-05T03:34:35.429Z,5.58
2022-11-05T03:37:06.352Z,5.57
2022-11-05T03:39:45.531Z,5.56
2022-11-05T03:42:18.552Z,5.55
2022-11-05T03:44:52.802Z,5.52
2022-11-05T03:47:35.805Z,5.54
2022-11-05T03:50:13.156Z,5.51
2022-11-05T03:52:59.561Z,5.49
2022-11-05T03:55:35.561Z,5.47
2022-11-05T03:58:05.996Z,5.47
2022-11-05T04:00:36.028Z,5.44
2022-11-05T04:03:04.386Z,5.43
2022-11-05T04:05:33.162Z,5.42
2022-11-05T04:08:20.320Z,5.43
2022-11-05T04:11:07.285Z,5.43
2022-11-05T04:13:35.964Z,5.44
2022-11-05T04:16:22.906Z,5.45
2022-11-05T04:18:51.363Z,5.46
2022-11-05T04:21:38.670Z,5.47
2022-11-05T04:24:10.303Z,5.50
2022-11-05T04:26:40.948Z,5.51
2022-11-05T04:29:28.490Z,5.51
2022-11-05T04:31:57.397Z,5.54
2022-11-05T04:34:25.899Z,5.55
2022-11-05T04:36:54.250Z,5.57
2022-11-05T04:39:22.604Z,5.58
2022-11-05T04:41:51.154Z,5.58
2022-11-05T04:44:19.475Z,5.58
2022-11-05T04:46:47.752Z,5.57
2022-11-05T04:49:16.042Z,5.56
2022-11-05T04:51:44.312Z,5.57
2022-11-05T04:54:12.670Z,5.55
2022-11-05T04:56:42.068Z,5.55
2022-11-05T04:59:10.707Z,5.54
2022-11-05T05:01:39.195Z,5.53
2022-11-05T05:04:07.680Z,5.54
2022-11-05T05:06:38.402Z,5.54
2022-11-05T05:09:07.105Z,5.54
2022-11-05T05:11:35.483Z,5.53
2022-11-05T05:14:03.928Z,5.53
2022-11-05T05:16:32.247Z,5.53
2022-11-05T05:19:01.082Z,5.55
2022-11-05T05:21:42.600Z,5.56
2022-11-05T05:24:13.708Z,5.57
2022-11-05T05:26:45.087Z,5.58
2022-11-05T05:29:13.973Z,5.58
2022-11-05T05:31:43.053Z,5.58
2022-11-05T05:34:13.434Z,5.59
2022-11-05T05:36:41.899Z,5.61
2022-11-05T05:39:11.104Z,5.61
2022-11-05T05:41:40.133Z,5.65
2022-11-05T05:44:08.444Z,5.66
2022-11-05T05:46:36.789Z,5.70
2022-11-05T05:49:09.535Z,5.74
2022-11-05T05:51:41.166Z,5.74
2022-11-05T05:54:10.975Z,5.80
2022-11-05T05:56:39.449Z,5.84
2022-11-05T05:59:07.751Z,5.86
2022-11-05T06:01:42.583Z,5.88
2022-11-05T06:04:14.570Z,5.90
2022-11-05T06:06:46.801Z,5.91
2022-11-05T06:09:15.539Z,5.91
2022-11-05T06:11:43.890Z,5.92
2022-11-05T06:14:13.446Z,5.92
2022-11-05T06:16:41.763Z,5.92
2022-11-05T06:19:10.239Z,5.91
2022-11-05T06:21:39.207Z,5.90
2022-11-05T06:24:07.991Z,5.88
2022-11-05T06:26:42.629Z,5.85
2022-11-05T06:29:11.147Z,5.86
2022-11-05T06:31:39.500Z,5.83
2022-11-05T06:34:08.513Z,5.82
2022-11-05T06:36:36.798Z,5.78
2022-11-05T06:39:11.193Z,5.76
2022-11-05T06:42:03.931Z,5.73
2022-11-05T06:44:28.158Z,5.71
2022-11-05T06:46:56.725Z,5.70
2022-11-05T06:49:28.073Z,5.70
2022-11-05T06:51:57.892Z,5.68
2022-11-05T06:54:26.819Z,5.69
2022-11-05T06:56:55.155Z,5.69
2022-11-05T06:59:23.477Z,5.69
2022-11-05T07:01:51.945Z,5.71
2022-11-05T07:04:20.406Z,5.73
2022-11-05T07:06:48.690Z,5.73
2022-11-05T07:09:17.108Z,5.74
2022-11-05T07:11:45.485Z,5.74
2022-11-05T07:14:13.931Z,5.75
2022-11-05T07:16:42.217Z,5.74
2022-11-05T07:19:10.664Z,5.76
2022-11-05T07:21:41.706Z,5.76
2022-11-05T07:24:14.423Z,5.78
2022-11-05T07:26:42.820Z,5.78
2022-11-05T07:29:11.179Z,5.80
2022-11-05T07:31:39.461Z,5.83
2022-11-05T07:34:08.192Z,5.86
2022-11-05T07:36:39.361Z,5.88
2022-11-05T07:39:07.861Z,5.92
2022-11-05T07:41:36.194Z,5.94
2022-11-05T07:44:05.038Z,5.97
2022-11-05T07:46:33.675Z,5.99
2022-11-05T07:49:02.431Z,6.03
2022-11-05T07:51:30.792Z,6.08
2022-11-05T07:53:59.279Z,6.14
2022-11-05T07:56:28.223Z,6.17
2022-11-05T07:59:00.718Z,6.23
2022-11-05T08:01:29.395Z,6.30
2022-11-05T08:03:58.327Z,6.36
2022-11-05T08:06:29.536Z,6.42
2022-11-05T08:08:59.962Z,6.49
2022-11-05T08:11:35.857Z,6.57
2022-11-05T08:14:05.565Z,6.63
2022-11-05T08:16:34.161Z,6.70
2022-11-05T08:19:02.467Z,6.81
2022-11-05T08:21:30.909Z,6.91
2022-11-05T08:23:59.239Z,6.96
2022-11-05T08:26:27.575Z,6.99
2022-11-05T08:28:55.924Z,7.04
2022-11-05T08:31:27.926Z,7.10
2022-11-05T08:34:02.277Z,7.14
2022-11-05T08:36:35.836Z,7.23
2022-11-05T08:39:04.388Z,7.28
2022-11-05T08:41:32.951Z,7.33
2022-11-05T08:44:01.867Z,7.37
2022-11-05T08:46:31.937Z,7.37
2022-11-05T08:49:00.379Z,7.37
2022-11-05T08:51:28.953Z,7.40
2022-11-05T08:53:58.940Z,7.46
2022-11-05T08:56:27.672Z,7.52
2022-11-05T08:58:56.109Z,7.60
2022-11-05T09:01:24.542Z,7.72
2022-11-05T09:03:53.105Z,7.84
2022-11-05T09:06:21.622Z,7.94
2022-11-05T09:08:50.365Z,7.98
2022-11-05T09:11:18.679Z,8.01
2022-11-05T09:13:47.258Z,8.06
2022-11-05T09:16:25.335Z,8.12
2022-11-05T09:18:54.317Z,8.17
2022-11-05T09:21:23.319Z,8.23
2022-11-05T09:23:51.840Z,8.24
2022-11-05T09:26:20.387Z,8.24
2022-11-05T09:28:48.732Z,8.24
2022-11-05T09:31:17.257Z,8.24
2022-11-05T09:33:45.968Z,8.23
2022-11-05T09:36:14.324Z,8.27
2022-11-05T09:38:43.063Z,8.37
2022-11-05T09:41:21.001Z,8.49
2022-11-05T09:43:53.498Z,8.64
2022-11-05T09:46:28.245Z,8.77
2022-11-05T09:49:06.750Z,8.90
2022-11-05T09:51:39.731Z,9.01
2022-11-05T09:54:11.986Z,9.13
2022-11-05T09:56:42.134Z,9.23
2022-11-05T09:59:24.908Z,9.32
2022-11-05T10:02:12.496Z,9.40
2022-11-05T10:04:45.036Z,9.47
2022-11-05T10:07:18.207Z,9.55
2022-11-05T10:09:51.535Z,9.65
2022-11-05T10:12:46.672Z,9.70
2022-11-05T10:15:37.288Z,9.74
2022-11-05T10:18:32.848Z,9.75
2022-11-05T10:21:05.814Z,9.73
2022-11-05T10:23:34.561Z,9.69
2022-11-05T10:26:07.852Z,9.71
2022-11-05T10:28:36.548Z,9.79
2022-11-05T10:31:12.594Z,9.83
2022-11-05T10:34:06.155Z,9.90
2022-11-05T10:36:37.148Z,9.97
2022-11-05T10:39:17.803Z,10.05
2022-11-05T10:42:00.849Z,10.14
2022-11-05T10:44:32.311Z,10.26
2022-11-05T10:47:38.372Z,10.37
2022-11-05T10:50:18.395Z,10.45
2022-11-05T10:53:02.001Z,10.55
2022-11-05T10:55:35.580Z,10.65
2022-11-05T10:58:10.290Z,10.80
2022-11-05T11:00:39.731Z,10.85
2022-11-05T11:03:44.438Z,10.91
2022-11-05T11:06:27.580Z,11.03
2022-11-05T11:08:57.982Z,11.11
2022-11-05T11:11:34.659Z,11.19
2022-11-05T11:14:19.852Z,11.22
2022-11-05T11:16:57.821Z,11.22
2022-11-05T11:19:35.149Z,11.24
2022-11-05T11:22:03.534Z,11.23
2022-11-05T11:24:37.846Z,11.27
2022-11-05T11:27:33.394Z,11.34
2022-11-05T11:30:05.037Z,11.35
2022-11-05T11:32:37.668Z,11.35
2022-11-05T11:35:08.630Z,11.37
2022-11-05T11:37:42.913Z,11.39
2022-11-05T11:40:21.129Z,11.40
2022-11-05T11:42:55.676Z,11.42
2022-11-05T11:45:27.956Z,11.41
2022-11-05T11:47:58.002Z,11.36
2022-11-05T11:50:39.453Z,11.35
2022-11-05T11:53:20.625Z,11.41
2022-11-05T11:55:55.078Z,11.46
2022-11-05T11:58:35.511Z,11.51
2022-11-05T12:01:37.289Z,11.56
2022-11-05T12:04:13.517Z,11.62
2022-11-05T12:07:13.264Z,11.75
2022-11-05T12:09:47.551Z,11.79
2022-11-05T12:12:22.314Z,11.75
2022-11-05T12:15:15.551Z,11.69
2022-11-05T12:17:53.243Z,11.65
2022-11-05T12:20:42.974Z,11.67
2022-11-05T12:23:39.929Z,11.67
2022-11-05T12:26:52.145Z,11.66
2022-11-05T12:30:08.160Z,11.61
2022-11-05T12:32:58.509Z,11.60
2022-11-05T12:35:27.142Z,11.55
2022-11-05T12:38:09.616Z,11.53
2022-11-05T12:40:56.149Z,11.49
2022-11-05T12:43:35.356Z,11.46
2022-11-05T12:46:38.293Z,11.42
2022-11-05T12:49:16.339Z,11.34
2022-11-05T12:52:09.461Z,11.29
2022-11-05T12:55:03.351Z,11.24
2022-11-05T12:57:35.955Z,11.17
2022-11-05T13:00:24.431Z,11.10
2022-11-05T13:03:07.323Z,11.03
2022-11-05T13:06:01.581Z,10.99
2022-11-05T13:08:44.283Z,10.96
2022-11-05T13:11:54.810Z,10.90
2022-11-05T13:14:41.503Z,10.85
2022-11-05T13:17:23.511Z,10.80
2022-11-05T13:20:17.307Z,10.75
2022-11-05T13:22:51.004Z,10.66
2022-11-05T13:25:29.008Z,10.64
2022-11-05T13:28:12.647Z,10.59
2022-11-05T13:30:46.623Z,10.54
2022-11-05T13:33:19.679Z,10.50
2022-11-05T13:36:34.899Z,10.42
2022-11-05T13:39:10.426Z,10.40
2022-11-05T13:42:01.235Z,10.29
2022-11-05T13:44:48.640Z,10.18
2022-11-05T13:47:32.286Z,10.06
2022-11-05T13:50:19.004Z,10.00
2022-11-05T13:53:26.045Z,9.95
2022-11-05T13:56:16.160Z,9.97
2022-11-05T13:59:12.610Z,9.97
2022-11-05T14:01:54.187Z,9.97
2022-11-05T14:04:32.023Z,9.99
2022-11-05T14:07:18.192Z,10.01
2022-11-05T14:09:53.506Z,10.04
2022-11-05T14:12:39.044Z,10.09
2022-11-05T14:15:23.553Z,10.10
2022-11-05T14:18:06.170Z,10.11
2022-11-05T14:20:34.490Z,10.11
2022-11-05T14:23:22.448Z,10.12
2022-11-05T14:26:17.870Z,10.09
2022-11-05T14:28:50.190Z,10.09
2022-11-05T14:31:19.437Z,10.08
2022-11-05T14:34:09.772Z,10.07
2022-11-05T14:36:40.396Z,10.08
2022-11-05T14:39:28.011Z,10.10
2022-11-05T14:42:15.913Z,10.12
2022-11-05T14:45:02.956Z,10.13
2022-11-05T14:47:43.017Z,10.15
2022-11-05T14:50:35.568Z,10.15
2022-11-05T14:53:12.974Z,10.17
2022-11-05T14:55:43.598Z,10.17
2022-11-05T14:58:26.093Z,10.15
2022-11-05T15:00:56.544Z,10.19
2022-11-05T15:03:50.677Z,10.16
2022-11-05T15:06:20.561Z,10.15
2022-11-05T15:08:48.880Z,10.13
2022-11-05T15:11:35.637Z,10.14
2022-11-05T15:14:26.360Z,10.12
2022-11-05T15:16:58.817Z,10.09
2022-11-05T15:19:33.927Z,10.06
2022-11-05T15:22:06.592Z,10.01
2022-11-05T15:24:35.577Z,9.98
2022-11-05T15:27:22.809Z,9.94
2022-11-05T15:29:51.259Z,9.92
2022-11-05T15:32:25.734Z,9.89
2022-11-05T15:34:56.159Z,9.88
2022-11-05T15:37:26.892Z,9.86
2022-11-05T15:39:55.850Z,9.85
2022-11-05T15:42:26.672Z,9.83
2022-11-05T15:44:57.474Z,9.83
2022-11-05T15:47:27.012Z,9.83
2022-11-05T15:50:01.381Z,9.83
2022-11-05T15:52:42.346Z,9.83
2022-11-05T15:55:12.009Z,9.80
2022-11-05T15:57:51.515Z,9.80
2022-11-05T16:00:23.194Z,9.80
2022-11-05T16:02:57.226Z,9.79
2022-11-05T16:05:30.674Z,9.80
2022-11-05T16:08:04.487Z,9.81
2022-11-05T16:10:38.080Z,9.77
2022-11-05T16:13:29.060Z,9.73
2022-11-05T16:16:00.654Z,9.71
2022-11-05T16:18:40.546Z,9.69
2022-11-05T16:21:08.914Z,9.66
2022-11-05T16:23:41.441Z,9.61
2022-11-05T16:29:39.361Z,9.51
2022-11-05T16:32:25.425Z,9.47
2022-11-05T16:35:01.555Z,9.44
2022-11-05T16:37:36.862Z,9.41
2022-11-05T16:40:15.690Z,9.34
2022-11-05T16:42:48.305Z,9.32
2022-11-05T16:45:18.945Z,9.29
2022-11-05T16:47:48.542Z,9.26
2022-11-05T16:50:26.142Z,9.23
2022-11-05T16:52:54.695Z,9.20
2022-11-05T16:55:23.727Z,9.18
2022-11-05T16:57:54.955Z,9.17
2022-11-05T17:00:25.482Z,9.14
2022-11-05T17:02:54.162Z,9.13
2022-11-05T17:05:24.534Z,9.10
2022-11-05T17:07:53.438Z,9.07
2022-11-05T17:10:23.348Z,9.06
2022-11-05T17:12:52.495Z,9.05
2022-11-05T17:15:25.232Z,9.02
2022-11-05T17:17:54.966Z,9.00
2022-11-05T17:20:40.477Z,8.98
2022-11-05T17:23:15.814Z,8.96
2022-11-05T17:25:48.908Z,8.97
2022-11-05T17:28:18.338Z,8.97
2022-11-05T17:30:52.298Z,8.94
2022-11-05T17:33:23.572Z,8.91
2022-11-05T17:35:52.480Z,8.92
2022-11-05T17:38:22.623Z,8.91
2022-11-05T17:40:51.828Z,8.88
2022-11-05T17:43:20.527Z,8.87
2022-11-05T17:45:51.938Z,8.88
2022-11-05T17:48:20.965Z,8.86
2022-11-05T17:50:50.753Z,8.86
2022-11-05T17:53:19.612Z,8.85
2022-11-05T17:55:48.344Z,8.83
2022-11-05T17:58:17.358Z,8.82
2022-11-05T18:00:47.980Z,8.81
2022-11-05T18:03:16.946Z,8.78
2022-11-05T18:05:45.362Z,8.78
2022-11-05T18:08:13.788Z,8.76
2022-11-05T18:10:42.552Z,8.76
2022-11-05T18:13:11.634Z,8.74
2022-11-05T18:15:41.234Z,8.71
2022-11-05T18:18:10.256Z,8.72
2022-11-05T18:20:38.831Z,8.71
2022-11-05T18:23:07.685Z,8.72
2022-11-05T18:25:36.285Z,8.74
2022-11-05T18:28:04.732Z,8.74
2022-11-05T18:30:33.863Z,8.74
2022-11-05T18:33:04.203Z,8.74
2022-11-05T18:35:32.578Z,8.74
2022-11-05T18:38:00.959Z,8.74
2022-11-05T18:40:29.607Z,8.74
2022-11-05T18:42:58.101Z,8.76
2022-11-05T18:45:29.717Z,8.76
2022-11-05T18:48:00.382Z,8.76
2022-11-05T18:50:29.420Z,8.76
2022-11-05T18:53:00.420Z,8.76
2022-11-05T18:55:28.965Z,8.77
2022-11-05T18:57:57.398Z,8.77
2022-11-05T19:00:25.729Z,8.80
2022-11-05T19:02:54.461Z,8.80
2022-11-05T19:05:31.145Z,8.81
2022-11-05T19:07:59.474Z,8.82
2022-11-05T19:10:29.377Z,8.84
2022-11-05T19:12:58.910Z,8.84
2022-11-05T19:15:27.381Z,8.85
2022-11-05T19:17:58.778Z,8.86
2022-11-05T19:20:28.091Z,8.85
2022-11-05T19:22:56.512Z,8.87
2022-11-05T19:25:25.152Z,8.87
2022-11-05T19:27:58.045Z,8.88
2022-11-05T19:30:26.430Z,8.89
2022-11-05T19:32:54.705Z,8.89
2022-11-05T19:35:27.208Z,8.90
2022-11-05T19:37:56.282Z,8.89
2022-11-05T19:40:27.288Z,8.89
2022-11-05T19:42:55.814Z,8.89
2022-11-05T19:45:43.688Z,8.89
2022-11-05T19:48:16.263Z,8.89
2022-11-05T19:50:47.811Z,8.88
2022-11-05T19:53:16.981Z,8.89
2022-11-05T19:55:45.409Z,8.88
2022-11-05T19:58:14.131Z,8.88
2022-11-05T20:00:43.049Z,8.88
2022-11-05T20:03:12.421Z,8.89
2022-11-05T20:05:40.913Z,8.89
2022-11-05T20:08:09.429Z,8.90
2022-11-05T20:10:38.176Z,8.89
2022-11-05T20:13:11.441Z,8.90
2022-11-05T20:15:46.317Z,8.91
2022-11-05T20:18:16.320Z,8.91
2022-11-05T20:20:45.354Z,8.90
2022-11-05T20:23:15.345Z,8.91
2022-11-05T20:25:43.724Z,8.91
2022-11-05T20:28:12.322Z,8.90
2022-11-05T20:30:40.791Z,8.90
2022-11-05T20:33:10.281Z,8.89
2022-11-05T20:35:39.490Z,8.90
2022-11-05T20:38:08.438Z,8.89
2022-11-05T20:40:39.742Z,8.90
2022-11-05T20:43:08.441Z,8.89
2022-11-05T20:45:38.241Z,8.90
2022-11-05T20:48:06.611Z,8.92
2022-11-05T20:50:35.233Z,8.91
2022-11-05T20:53:03.521Z,8.93
2022-11-05T20:55:46.481Z,8.95
2022-11-05T20:58:17.792Z,8.96
2022-11-05T21:00:51.445Z,8.97
2022-11-05T21:03:21.203Z,8.97
2022-11-05T21:05:54.544Z,8.98
2022-11-05T21:08:24.011Z,8.98
2022-11-05T21:10:52.552Z,9.00
2022-11-05T21:13:21.688Z,8.98
2022-11-05T21:15:52.527Z,8.98
2022-11-05T21:18:23.562Z,8.98
2022-11-05T21:20:53.165Z,8.97
2022-11-05T21:23:21.903Z,8.96
2022-11-05T21:25:50.225Z,8.97
2022-11-05T21:28:18.632Z,8.97
2022-11-05T21:30:49.047Z,8.97
2022-11-05T21:33:18.948Z,8.96
2022-11-05T21:35:51.481Z,8.96
2022-11-05T21:38:20.013Z,8.98
2022-11-05T21:40:49.220Z,8.99
2022-11-05T21:43:18.039Z,9.00
2022-11-05T21:45:46.575Z,9.00
2022-11-05T21:48:15.541Z,9.01
2022-11-05T21:51:02.751Z,9.04
2022-11-05T21:53:49.828Z,9.05
2022-11-05T21:56:42.880Z,9.06
2022-11-05T21:59:32.855Z,9.07
2022-11-05T22:02:02.185Z,9.07
2022-11-05T22:04:34.770Z,9.07
2022-11-05T22:07:04.483Z,9.08
2022-11-05T22:09:32.993Z,9.07
2022-11-05T22:12:03.021Z,9.06
2022-11-05T22:14:31.704Z,9.08
2022-11-05T22:17:00.117Z,9.08
2022-11-05T22:19:28.599Z,9.10
2022-11-05T22:21:57.249Z,9.11
2022-11-05T22:24:28.197Z,9.11
2022-11-05T22:26:56.766Z,9.12
2022-11-05T22:29:25.556Z,9.14
2022-11-05T22:31:54.141Z,9.14
2022-11-05T22:34:23.486Z,9.16
2022-11-05T22:36:52.864Z,9.17
2022-11-05T22:39:21.992Z,9.18
2022-11-05T22:41:54.036Z,9.19
2022-11-05T22:44:24.076Z,9.19
2022-11-05T22:46:53.707Z,9.21
2022-11-05T22:49:22.347Z,9.21
2022-11-05T22:51:51.604Z,9.22
2022-11-05T22:54:20.318Z,9.23
2022-11-05T22:56:50.742Z,9.23
2022-11-05T22:59:19.388Z,9.23
2022-11-05T23:01:49.630Z,9.24
2022-11-05T23:04:18.918Z,9.25
2022-11-05T23:07:06.727Z,9.24
2022-11-05T23:09:55.621Z,9.23
2022-11-05T23:12:30.488Z,9.24
2022-11-05T23:15:00.629Z,9.24
2022-11-05T23:17:47.957Z,9.24
2022-11-05T23:20:41.343Z,9.23
2022-11-05T23:23:29.428Z,9.22
2022-11-05T23:26:00.316Z,9.23
2022-11-05T23:28:28.703Z,9.25
2022-11-05T23:31:15.670Z,9.25
2022-11-05T23:33:43.992Z,9.27
2022-11-05T23:36:31.547Z,9.28
2022-11-05T23:39:00.413Z,9.29
2022-11-05T23:41:47.232Z,9.31
2022-11-05T23:44:34.233Z,9.31
2022-11-05T23:47:21.139Z,9.32
2022-11-05T23:49:49.442Z,9.33
2022-11-05T23:52:18.464Z,9.34
2022-11-05T23:54:47.255Z,9.34
2022-11-05T23:57:15.650Z,9.35
2022-11-05T23:59:44.246Z,9.34
